createdAt,value
2019-01-31T00:02:39.487Z,3.87
2019-01-31T00:05:19.758Z,4.40
2019-01-31T00:08:09.395Z,4.20
2019-01-31T00:10:49.215Z,4.33
2019-01-31T00:13:26.418Z,3.70
2019-01-31T00:16:14.526Z,4.50
2019-01-31T00:18:48.983Z,3.67
2019-01-31T00:21:29.490Z,3.50
2019-01-31T00:24:09.634Z,3.30
2019-01-31T00:26:41.291Z,4.15
2019-01-31T00:29:12.927Z,4.30
2019-01-31T00:31:50.685Z,3.60
2019-01-31T00:34:43.345Z,3.27
2019-01-31T00:37:17.390Z,2.77
2019-01-31T00:40:01.106Z,3.60
2019-01-31T00:42:41.299Z,3.12
2019-01-31T00:45:24.551Z,2.75
2019-01-31T00:48:02.024Z,3.20
2019-01-31T00:50:57.406Z,3.08
2019-01-31T00:53:55.127Z,2.92
2019-01-31T00:56:38.653Z,3.77
2019-01-31T00:59:13.035Z,3.02
2019-01-31T01:02:01.061Z,2.83
2019-01-31T01:04:32.671Z,3.20
2019-01-31T01:07:22.454Z,2.50
2019-01-31T01:09:56.639Z,3.25
2019-01-31T01:12:43.274Z,3.12
2019-01-31T01:15:14.906Z,3.30
2019-01-31T01:17:52.163Z,2.85
2019-01-31T01:20:44.891Z,3.65
2019-01-31T01:23:25.301Z,3.20
2019-01-31T01:26:02.874Z,3.58
2019-01-31T01:28:40.103Z,3.60
2019-01-31T01:31:26.387Z,2.85
2019-01-31T01:33:58.023Z,2.80
2019-01-31T01:36:32.319Z,2.92
2019-01-31T01:39:20.072Z,2.83
2019-01-31T01:42:00.290Z,2.60
2019-01-31T01:44:52.836Z,2.75
2019-01-31T01:47:24.479Z,3.30
2019-01-31T01:49:58.734Z,1.75
2019-01-31T01:52:32.838Z,3.30
2019-01-31T01:55:07.419Z,2.80
2019-01-31T01:57:42.015Z,2.67
2019-01-31T02:00:16.203Z,2.70
2019-01-31T02:03:11.643Z,2.70
2019-01-31T02:05:55.181Z,2.80
2019-01-31T02:08:35.702Z,2.00
2019-01-31T02:11:27.959Z,2.40
2019-01-31T02:14:02.307Z,2.50
2019-01-31T02:16:51.705Z,2.77
2019-01-31T02:19:41.107Z,2.50
2019-01-31T02:22:21.595Z,2.02
2019-01-31T02:25:07.909Z,2.40
2019-01-31T02:28:05.171Z,2.00
2019-01-31T02:30:39.504Z,2.55
2019-01-31T02:33:27.423Z,1.92
2019-01-31T02:36:11.096Z,1.90
2019-01-31T02:39:04.974Z,2.15
2019-01-31T02:42:03.616Z,2.12
2019-01-31T02:44:54.685Z,2.25
2019-01-31T02:47:46.623Z,2.30
2019-01-31T02:50:36.307Z,2.45
2019-01-31T02:53:07.943Z,2.00
2019-01-31T02:55:42.392Z,2.00
2019-01-31T02:58:31.944Z,2.17
2019-01-31T03:01:12.506Z,1.92
2019-01-31T03:03:44.138Z,1.75
2019-01-31T03:06:33.663Z,1.72
2019-01-31T03:09:19.895Z,1.85
2019-01-31T03:12:00.428Z,1.62
2019-01-31T03:14:32.195Z,1.92
2019-01-31T03:17:20.055Z,2.08
2019-01-31T03:19:54.338Z,2.17
2019-01-31T03:22:42.193Z,1.50
2019-01-31T03:25:16.544Z,1.50
2019-01-31T03:28:02.821Z,1.80
2019-01-31T03:30:45.614Z,1.70
2019-01-31T03:33:33.367Z,1.30
2019-01-31T03:36:19.267Z,2.25
2019-01-31T03:39:08.855Z,1.50
2019-01-31T03:41:58.493Z,1.40
2019-01-31T03:44:32.641Z,1.80
2019-01-31T03:47:06.899Z,2.40
2019-01-31T03:49:43.918Z,2.17
2019-01-31T03:52:39.313Z,1.65
2019-01-31T03:55:42.323Z,1.87
2019-01-31T03:58:31.642Z,1.87
2019-01-31T04:01:28.647Z,2.30
2019-01-31T04:04:21.295Z,3.52
2019-01-31T04:06:49.883Z,1.40
2019-01-31T04:09:18.438Z,1.70
2019-01-31T04:11:47.027Z,1.77
2019-01-31T04:14:15.598Z,1.37
2019-01-31T04:16:44.187Z,1.42
2019-01-31T04:19:12.735Z,1.47
2019-01-31T04:21:41.316Z,1.98
2019-01-31T04:24:09.875Z,2.17
2019-01-31T04:26:38.458Z,2.00
2019-01-31T04:29:07.019Z,1.90
2019-01-31T04:31:35.610Z,1.80
2019-01-31T04:34:04.160Z,2.00
2019-01-31T04:36:32.753Z,1.70
2019-01-31T04:39:01.311Z,1.67
2019-01-31T04:41:29.896Z,2.05
2019-01-31T04:43:58.484Z,2.15
2019-01-31T04:46:27.057Z,2.30
2019-01-31T04:48:55.619Z,2.27
2019-01-31T04:51:24.199Z,2.35
2019-01-31T04:53:52.760Z,3.15
2019-01-31T04:56:21.328Z,2.52
2019-01-31T04:58:49.915Z,2.27
2019-01-31T05:01:18.476Z,1.98
2019-01-31T05:03:47.059Z,1.75
2019-01-31T05:06:15.614Z,2.15
2019-01-31T05:08:44.201Z,1.62
2019-01-31T05:11:12.764Z,1.80
2019-01-31T05:13:41.353Z,1.80
2019-01-31T05:16:09.978Z,2.27
2019-01-31T05:18:38.558Z,1.60
2019-01-31T05:21:07.120Z,2.00
2019-01-31T05:23:35.699Z,1.85
2019-01-31T05:26:04.322Z,2.05
2019-01-31T05:28:32.906Z,1.87
2019-01-31T05:31:01.471Z,2.08
2019-01-31T05:33:30.055Z,2.10
2019-01-31T05:35:58.615Z,2.33
2019-01-31T05:38:27.196Z,2.30
2019-01-31T05:40:56.081Z,2.10
2019-01-31T05:43:24.739Z,2.02
2019-01-31T05:45:53.299Z,1.90
2019-01-31T05:48:21.889Z,1.72
2019-01-31T05:50:50.451Z,1.72
2019-01-31T05:53:19.034Z,2.05
2019-01-31T05:55:47.590Z,2.20
2019-01-31T05:58:16.170Z,1.80
2019-01-31T06:00:44.725Z,1.95
2019-01-31T06:03:13.306Z,1.90
2019-01-31T06:05:41.875Z,1.85
2019-01-31T06:08:10.457Z,1.95
2019-01-31T06:10:39.016Z,2.35
2019-01-31T06:13:07.594Z,2.10
2019-01-31T06:15:36.165Z,2.40
2019-01-31T06:18:04.989Z,1.90
2019-01-31T06:20:33.560Z,1.80
2019-01-31T06:23:02.148Z,1.85
2019-01-31T06:25:30.704Z,2.00
2019-01-31T06:27:59.354Z,2.25
2019-01-31T06:30:27.923Z,2.52
2019-01-31T06:32:56.519Z,2.40
2019-01-31T06:35:25.080Z,2.52
2019-01-31T06:37:53.663Z,3.52
2019-01-31T06:40:22.297Z,2.72
2019-01-31T06:42:50.955Z,2.90
2019-01-31T06:45:21.450Z,3.22
2019-01-31T06:47:50.110Z,2.10
2019-01-31T06:50:18.743Z,2.58
2019-01-31T06:52:47.403Z,2.20
2019-01-31T06:55:16.110Z,2.22
2019-01-31T06:57:44.695Z,3.15
2019-01-31T07:00:16.260Z,2.60
2019-01-31T07:02:44.846Z,3.08
2019-01-31T07:05:13.479Z,2.45
2019-01-31T07:07:42.070Z,3.40
2019-01-31T07:10:16.259Z,2.52
2019-01-31T07:12:44.838Z,2.50
2019-01-31T07:15:13.746Z,2.55
2019-01-31T07:17:42.408Z,2.30
2019-01-31T07:20:16.342Z,2.08
2019-01-31T07:22:45.002Z,3.15
2019-01-31T07:25:16.475Z,4.30
2019-01-31T07:27:45.059Z,5.05
2019-01-31T07:30:15.958Z,3.72
2019-01-31T07:32:44.548Z,3.35
2019-01-31T07:35:14.354Z,3.45
2019-01-31T07:37:43.088Z,4.72
2019-01-31T07:40:14.291Z,2.98
2019-01-31T07:42:42.859Z,3.20
2019-01-31T07:45:17.063Z,3.55
2019-01-31T07:47:45.647Z,4.25
2019-01-31T07:50:16.548Z,3.80
2019-01-31T07:52:45.106Z,3.05
2019-01-31T07:55:13.926Z,3.67
2019-01-31T07:57:42.496Z,3.20
2019-01-31T08:00:13.625Z,3.55
2019-01-31T08:02:42.250Z,3.33
2019-01-31T08:05:14.075Z,3.20
2019-01-31T08:07:42.715Z,2.80
2019-01-31T08:10:17.162Z,3.60
2019-01-31T08:12:45.804Z,5.17
2019-01-31T08:15:17.527Z,4.80
2019-01-31T08:17:46.162Z,9.60
2019-01-31T08:20:16.795Z,8.95
2019-01-31T08:22:45.535Z,8.15
2019-01-31T08:25:19.299Z,9.40
2019-01-31T08:27:48.506Z,8.63
2019-01-31T08:30:38.008Z,7.92
2019-01-31T08:33:06.719Z,6.45
2019-01-31T08:35:35.284Z,5.35
2019-01-31T08:38:04.220Z,5.55
2019-01-31T08:40:32.978Z,4.72
2019-01-31T08:43:01.547Z,4.60
2019-01-31T08:45:30.136Z,3.65
2019-01-31T08:47:58.708Z,3.65
2019-01-31T08:50:30.935Z,4.20
2019-01-31T08:52:59.498Z,3.62
2019-01-31T08:55:28.078Z,4.00
2019-01-31T08:57:56.716Z,3.45
2019-01-31T09:00:27.702Z,3.10
2019-01-31T09:02:56.335Z,3.10
2019-01-31T09:05:25.051Z,2.75
2019-01-31T09:07:53.611Z,2.60
2019-01-31T09:10:36.574Z,3.40
2019-01-31T09:13:06.975Z,3.17
2019-01-31T09:15:35.559Z,2.80
2019-01-31T09:18:04.455Z,2.70
2019-01-31T09:20:44.920Z,2.47
2019-01-31T09:23:24.623Z,2.80
2019-01-31T09:26:10.989Z,2.92
2019-01-31T09:28:54.270Z,2.85
2019-01-31T09:31:37.719Z,1.95
2019-01-31T09:34:12.134Z,2.05
2019-01-31T09:37:07.042Z,2.77
2019-01-31T09:39:43.932Z,3.00
2019-01-31T09:42:26.796Z,2.25
2019-01-31T09:45:04.927Z,2.60
2019-01-31T09:47:36.662Z,2.55
2019-01-31T09:50:17.043Z,2.12
2019-01-31T09:53:05.923Z,2.22
2019-01-31T09:56:04.303Z,2.15
2019-01-31T09:58:47.683Z,1.70
2019-01-31T10:01:21.883Z,2.05
2019-01-31T10:03:58.746Z,2.67
2019-01-31T10:06:33.262Z,1.87
2019-01-31T10:09:10.781Z,2.50
2019-01-31T10:12:04.662Z,2.12
2019-01-31T10:14:39.296Z,1.90
2019-01-31T10:17:27.188Z,2.30
2019-01-31T10:20:04.795Z,2.67
2019-01-31T10:22:36.568Z,2.10
2019-01-31T10:25:23.019Z,2.65
2019-01-31T10:28:09.259Z,1.87
2019-01-31T10:30:43.539Z,2.47
2019-01-31T10:33:29.558Z,2.55
2019-01-31T10:36:05.681Z,3.30
2019-01-31T10:38:39.755Z,2.87
2019-01-31T10:41:30.829Z,3.00
2019-01-31T10:44:25.998Z,2.35
2019-01-31T10:47:03.158Z,2.72
2019-01-31T10:50:07.486Z,1.65
2019-01-31T10:53:02.987Z,3.47
2019-01-31T10:55:34.643Z,2.75
2019-01-31T10:58:08.923Z,1.77
2019-01-31T11:00:52.155Z,2.35
2019-01-31T11:03:38.426Z,2.12
2019-01-31T11:06:10.085Z,1.85
2019-01-31T11:09:08.003Z,1.25
2019-01-31T11:11:42.193Z,2.10
2019-01-31T11:14:25.436Z,2.00
2019-01-31T11:17:16.226Z,1.65
2019-01-31T11:19:47.887Z,1.40
2019-01-31T11:22:22.191Z,1.70
2019-01-31T11:25:17.611Z,1.60
2019-01-31T11:28:01.162Z,1.50
2019-01-31T11:30:35.509Z,1.30
2019-01-31T11:33:35.487Z,1.70
2019-01-31T11:36:34.164Z,2.05
2019-01-31T11:39:13.132Z,1.80
2019-01-31T11:42:01.248Z,1.77
2019-01-31T11:44:49.133Z,1.55
2019-01-31T11:47:29.534Z,2.33
2019-01-31T11:50:25.174Z,1.77
2019-01-31T11:53:01.165Z,1.60
2019-01-31T11:55:59.907Z,1.92
2019-01-31T11:58:40.230Z,2.30
2019-01-31T12:01:09.847Z,1.50
2019-01-31T12:03:38.402Z,2.00
2019-01-31T12:06:06.997Z,1.92
2019-01-31T12:08:35.555Z,2.55
2019-01-31T12:11:04.279Z,2.80
2019-01-31T12:13:32.847Z,2.22
2019-01-31T12:16:01.423Z,2.47
2019-01-31T12:18:30.055Z,2.50
2019-01-31T12:20:58.638Z,2.27
2019-01-31T12:23:27.199Z,2.15
2019-01-31T12:25:55.779Z,2.70
2019-01-31T12:28:24.339Z,2.22
2019-01-31T12:30:52.919Z,2.20
2019-01-31T12:33:21.548Z,2.42
2019-01-31T12:35:50.130Z,2.30
2019-01-31T12:38:18.695Z,2.72
2019-01-31T12:40:47.271Z,2.85
2019-01-31T12:43:15.826Z,2.12
2019-01-31T12:45:44.403Z,2.40
2019-01-31T12:48:12.956Z,2.10
2019-01-31T12:50:41.687Z,2.45
2019-01-31T12:53:10.235Z,2.42
2019-01-31T12:55:38.886Z,2.35
2019-01-31T12:58:07.520Z,2.10
2019-01-31T13:00:36.170Z,2.33
2019-01-31T13:03:04.902Z,1.72
2019-01-31T13:05:33.550Z,2.27
2019-01-31T13:08:02.120Z,2.40
2019-01-31T13:10:30.699Z,2.05
2019-01-31T13:12:59.495Z,1.75
2019-01-31T13:15:29.466Z,1.50
2019-01-31T13:17:58.185Z,1.80
2019-01-31T13:20:26.750Z,3.52
2019-01-31T13:22:56.128Z,2.40
2019-01-31T13:25:25.960Z,1.90
2019-01-31T13:27:54.686Z,1.92
2019-01-31T13:30:24.087Z,1.75
2019-01-31T13:32:54.817Z,1.85
2019-01-31T13:35:23.439Z,2.10
2019-01-31T13:37:52.019Z,2.90
2019-01-31T13:40:23.184Z,2.55
2019-01-31T13:42:52.203Z,1.70
2019-01-31T13:45:28.837Z,2.50
2019-01-31T13:47:59.546Z,3.10
2019-01-31T13:50:28.175Z,2.00
2019-01-31T13:52:56.758Z,2.08
2019-01-31T13:55:30.211Z,2.40
2019-01-31T13:57:58.860Z,2.20
2019-01-31T14:00:27.482Z,2.10
2019-01-31T14:02:56.235Z,2.47
2019-01-31T14:05:25.060Z,2.60
2019-01-31T14:07:54.482Z,2.98
2019-01-31T14:10:27.431Z,2.58
2019-01-31T14:12:56.075Z,2.60
2019-01-31T14:15:34.170Z,4.90
2019-01-31T14:18:02.959Z,3.17
2019-01-31T14:20:31.619Z,3.25
2019-01-31T14:23:00.275Z,5.55
2019-01-31T14:25:28.975Z,5.62
2019-01-31T14:27:57.561Z,5.40
2019-01-31T14:30:29.201Z,4.42
2019-01-31T14:32:58.410Z,4.53
2019-01-31T14:35:27.506Z,4.80
2019-01-31T14:37:56.162Z,4.20
2019-01-31T14:40:25.658Z,3.92
2019-01-31T14:42:54.305Z,4.55
2019-01-31T14:45:22.866Z,3.90
2019-01-31T14:47:51.457Z,3.80
2019-01-31T14:50:23.083Z,3.92
2019-01-31T14:52:51.736Z,4.58
2019-01-31T14:55:20.439Z,3.40
2019-01-31T14:57:49.151Z,3.20
2019-01-31T15:00:20.359Z,3.80
2019-01-31T15:02:48.935Z,4.08
2019-01-31T15:05:17.826Z,3.70
2019-01-31T15:07:46.579Z,3.87
2019-01-31T15:10:18.051Z,4.17
2019-01-31T15:12:46.707Z,6.03
2019-01-31T15:15:16.481Z,6.47
2019-01-31T15:17:45.163Z,6.97
2019-01-31T15:20:22.240Z,6.45
2019-01-31T15:22:52.523Z,7.03
2019-01-31T15:25:22.362Z,10.50
2019-01-31T15:27:51.223Z,10.48
2019-01-31T15:30:28.239Z,7.37
2019-01-31T15:32:57.451Z,7.55
2019-01-31T15:35:26.083Z,7.90
2019-01-31T15:37:54.667Z,10.68
2019-01-31T15:40:29.001Z,8.95
2019-01-31T15:42:57.659Z,11.22
2019-01-31T15:45:26.225Z,10.30
2019-01-31T15:47:54.814Z,10.53
2019-01-31T15:50:23.458Z,11.75
2019-01-31T15:52:52.047Z,11.00
2019-01-31T15:55:23.755Z,9.75
2019-01-31T15:57:52.548Z,13.20
2019-01-31T16:00:42.557Z,12.93
2019-01-31T16:03:13.927Z,11.38
2019-01-31T16:05:42.679Z,13.22
2019-01-31T16:08:11.938Z,10.25
2019-01-31T16:10:40.733Z,13.00
2019-01-31T16:13:09.922Z,15.65
2019-01-31T16:15:39.350Z,16.10
2019-01-31T16:18:10.057Z,13.65
2019-01-31T16:20:39.230Z,12.10
2019-01-31T16:23:08.807Z,12.28
2019-01-31T16:25:37.327Z,12.65
2019-01-31T16:28:07.306Z,12.35
2019-01-31T16:30:36.202Z,13.15
2019-01-31T16:33:05.671Z,15.10
2019-01-31T16:35:34.727Z,15.65
2019-01-31T16:38:03.551Z,14.25
2019-01-31T16:40:32.115Z,13.58
2019-01-31T16:43:00.775Z,14.85
2019-01-31T16:45:31.158Z,13.68
2019-01-31T16:48:00.219Z,11.48
2019-01-31T16:50:31.247Z,11.48
2019-01-31T16:53:01.863Z,11.70
2019-01-31T16:55:31.071Z,12.15
2019-01-31T16:58:00.000Z,12.05
2019-01-31T17:00:31.011Z,12.82
2019-01-31T17:02:59.676Z,11.22
2019-01-31T17:05:30.951Z,12.65
2019-01-31T17:07:59.879Z,10.93
2019-01-31T17:10:28.823Z,12.45
2019-01-31T17:12:57.578Z,11.95
2019-01-31T17:15:26.491Z,11.70
2019-01-31T17:17:55.083Z,29.45
2019-01-31T17:20:26.592Z,14.43
2019-01-31T17:22:55.181Z,13.65
2019-01-31T17:25:23.822Z,12.85
2019-01-31T17:27:52.419Z,11.75
2019-01-31T17:30:25.960Z,13.60
2019-01-31T17:32:54.543Z,12.68
2019-01-31T17:35:23.103Z,15.38
2019-01-31T17:37:51.858Z,13.25
2019-01-31T17:40:35.219Z,15.75
2019-01-31T17:43:04.175Z,15.23
2019-01-31T17:45:32.757Z,13.68
2019-01-31T17:48:01.409Z,18.02
2019-01-31T17:50:29.980Z,13.25
2019-01-31T17:52:58.551Z,15.30
2019-01-31T17:55:28.093Z,16.40
2019-01-31T17:57:56.686Z,16.85
2019-01-31T18:00:38.260Z,13.55
2019-01-31T18:03:07.835Z,14.55
2019-01-31T18:05:36.682Z,16.17
2019-01-31T18:08:09.049Z,19.50
2019-01-31T18:10:36.331Z,17.40
2019-01-31T18:13:05.682Z,18.02
2019-01-31T18:15:41.686Z,17.95
2019-01-31T18:18:05.397Z,19.00
2019-01-31T18:20:33.991Z,16.73
2019-01-31T18:23:02.562Z,18.48
2019-01-31T18:25:31.168Z,17.35
2019-01-31T18:27:59.741Z,16.40
2019-01-31T18:30:34.202Z,13.60
2019-01-31T18:33:02.771Z,11.85
2019-01-31T18:35:31.430Z,14.75
2019-01-31T18:38:00.003Z,12.15
2019-01-31T18:40:33.838Z,14.83
2019-01-31T18:43:02.422Z,14.85
2019-01-31T18:45:32.944Z,14.90
2019-01-31T18:48:01.585Z,13.88
2019-01-31T18:50:35.411Z,11.12
2019-01-31T18:53:04.614Z,11.60
2019-01-31T18:55:33.283Z,11.95
2019-01-31T18:58:01.921Z,11.43
2019-01-31T19:00:32.954Z,11.63
2019-01-31T19:03:01.660Z,11.50
2019-01-31T19:05:30.625Z,12.10
2019-01-31T19:07:59.263Z,11.90
2019-01-31T19:10:27.926Z,14.20
2019-01-31T19:12:56.587Z,12.43
2019-01-31T19:15:26.718Z,16.23
2019-01-31T19:18:05.499Z,22.42
2019-01-31T19:20:30.063Z,32.78
2019-01-31T19:23:03.462Z,27.77
2019-01-31T19:25:32.467Z,20.40
2019-01-31T19:28:01.367Z,20.95
2019-01-31T19:30:35.172Z,22.90
2019-01-31T19:33:04.882Z,25.50
2019-01-31T19:35:33.610Z,24.72
2019-01-31T19:38:02.641Z,25.50
2019-01-31T19:40:36.054Z,20.23
2019-01-31T19:43:05.065Z,22.80
2019-01-31T19:45:36.966Z,26.30
2019-01-31T19:48:05.875Z,21.40
2019-01-31T19:50:34.540Z,21.90
2019-01-31T19:53:03.379Z,24.98
2019-01-31T19:55:32.040Z,24.70
2019-01-31T19:58:00.613Z,25.30
2019-01-31T20:00:29.211Z,26.65
2019-01-31T20:02:57.853Z,28.57
2019-01-31T20:05:26.596Z,29.80
2019-01-31T20:07:55.475Z,29.02
2019-01-31T20:10:31.455Z,29.48
2019-01-31T20:13:00.345Z,24.92
2019-01-31T20:15:29.427Z,30.20
2019-01-31T20:17:58.069Z,28.07
2019-01-31T20:20:28.505Z,27.60
2019-01-31T20:22:57.812Z,30.00
2019-01-31T20:25:27.543Z,28.57
2019-01-31T20:27:56.183Z,30.10
2019-01-31T20:30:30.499Z,29.77
2019-01-31T20:33:00.017Z,29.32
2019-01-31T20:35:28.881Z,28.87
2019-01-31T20:37:57.452Z,27.98
2019-01-31T20:40:34.460Z,29.18
2019-01-31T20:43:03.163Z,30.02
2019-01-31T20:45:31.995Z,30.77
2019-01-31T20:48:00.594Z,31.75
2019-01-31T20:50:34.079Z,38.75
2019-01-31T20:53:02.790Z,33.10
2019-01-31T20:55:31.519Z,32.00
2019-01-31T20:58:00.091Z,30.27
2019-01-31T21:00:32.554Z,29.20
2019-01-31T21:03:01.272Z,26.23
2019-01-31T21:05:29.926Z,27.77
2019-01-31T21:07:58.499Z,27.42
2019-01-31T21:10:27.166Z,29.70
2019-01-31T21:12:55.868Z,28.75
2019-01-31T21:15:25.899Z,28.17
2019-01-31T21:17:54.643Z,28.10
2019-01-31T21:20:26.510Z,31.50
2019-01-31T21:22:55.588Z,30.20
2019-01-31T21:25:24.311Z,30.40
2019-01-31T21:27:52.949Z,29.57
2019-01-31T21:30:32.939Z,30.20
2019-01-31T21:33:01.580Z,26.37
2019-01-31T21:35:30.619Z,26.90
2019-01-31T21:37:59.355Z,27.07
2019-01-31T21:40:30.491Z,26.10
2019-01-31T21:42:59.118Z,27.07
2019-01-31T21:45:27.957Z,27.27
2019-01-31T21:47:56.531Z,25.92
2019-01-31T21:50:27.830Z,27.37
2019-01-31T21:52:56.584Z,26.77
2019-01-31T21:55:25.286Z,27.80
2019-01-31T21:57:53.959Z,26.68
2019-01-31T22:00:31.068Z,27.00
2019-01-31T22:02:59.787Z,27.80
2019-01-31T22:05:28.494Z,26.05
2019-01-31T22:07:57.250Z,23.73
2019-01-31T22:10:25.883Z,24.63
2019-01-31T22:12:54.479Z,25.68
2019-01-31T22:15:27.938Z,26.45
2019-01-31T22:17:59.803Z,25.55
2019-01-31T22:20:26.874Z,25.52
2019-01-31T22:22:55.539Z,29.60
2019-01-31T22:25:24.854Z,26.82
2019-01-31T22:27:53.585Z,26.23
2019-01-31T22:30:30.456Z,25.08
2019-01-31T22:32:59.055Z,25.27
2019-01-31T22:35:27.886Z,22.60
2019-01-31T22:37:56.549Z,26.00
2019-01-31T22:40:25.262Z,27.02
2019-01-31T22:42:53.851Z,25.45
2019-01-31T22:45:25.620Z,25.45
2019-01-31T22:47:54.386Z,25.82
2019-01-31T22:50:23.787Z,26.20
2019-01-31T22:52:52.520Z,25.52
2019-01-31T22:55:25.785Z,24.43
2019-01-31T22:57:54.919Z,24.27
2019-01-31T23:00:45.670Z,24.02
2019-01-31T23:03:14.396Z,23.12
2019-01-31T23:05:43.208Z,25.62
2019-01-31T23:08:11.868Z,23.30
2019-01-31T23:10:40.537Z,24.60
2019-01-31T23:13:09.194Z,24.05
2019-01-31T23:15:37.766Z,23.73
2019-01-31T23:18:06.600Z,25.05
2019-01-31T23:20:35.242Z,22.22
2019-01-31T23:23:03.830Z,25.75
2019-01-31T23:25:39.651Z,24.98
2019-01-31T23:28:02.640Z,24.57
2019-01-31T23:30:31.211Z,22.58
2019-01-31T23:32:59.804Z,23.30
2019-01-31T23:35:28.379Z,25.52
2019-01-31T23:37:56.975Z,24.35
2019-01-31T23:40:25.552Z,23.00
2019-01-31T23:42:54.142Z,23.95
2019-01-31T23:45:22.775Z,24.65
2019-01-31T23:47:51.366Z,23.65
2019-01-31T23:50:19.952Z,23.12
2019-01-31T23:52:48.530Z,23.15
2019-01-31T23:55:17.575Z,22.07
2019-01-31T23:57:46.158Z,22.42
